| time (UTC) | temp C | wind direction | speed KPH | gust KPH | rain 1hr cm | rain 24hr cm | rain mn cm | humidity % | barometer mb |
| 20260504050512 | 12 | 273 | 4.8 | 11.3 | 0.00 | 0.05 | 0.00 | 54 | 1007.6 |
| 20260504050012 | 12 | 288 | 6.4 | 16.1 | 0.00 | 0.05 | 0.00 | 53 | 1007.6 |
| 20260504045512 | 12 | 260 | 6.4 | 16.1 | 0.00 | 0.05 | 0.00 | 52 | 1007.6 |
| 20260504045010 | 12 | 231 | 6.4 | 20.9 | 0.00 | 0.05 | 0.00 | 52 | 1007.6 |
| 20260504044510 | 12 | 295 | 6.4 | 20.9 | 0.00 | 0.05 | 0.00 | 52 | 1007.6 |
| 20260504044011 | 13 | 273 | 6.4 | 19.3 | 0.00 | 0.05 | 0.00 | 52 | 1007.6 |
| 20260504043512 | 13 | 243 | 8.0 | 17.7 | 0.00 | 0.05 | 0.00 | 52 | 1007.5 |
| 20260504043012 | 12 | 275 | 8.0 | 17.7 | 0.00 | 0.05 | 0.00 | 52 | 1007.5 |
| 20260504042732 | 12 | 286 | 6.4 | 16.1 | 0.00 | 0.05 | 0.00 | 52 | 1007.6 |
| 20260504042458 | 12 | 256 | 8.0 | 17.7 | 0.00 | 0.05 | 0.00 | 52 | 1007.5 |
| 20260504041508 | 12 | 312 | 8.0 | 17.7 | 0.00 | 0.05 | 0.00 | 53 | 1007.6 |
| 20260504041010 | 12 | 301 | 6.4 | 14.5 | 0.00 | 0.05 | 0.00 | 53 | 1007.6 |
| 20260504040505 | 12 | 231 | 4.8 | 14.5 | 0.00 | 0.05 | 0.00 | 54 | 1007.6 |
| 20260504040225 | 12 | 251 | 4.8 | 11.3 | 0.00 | 0.05 | 0.00 | 54 | 1007.6 |
| 20260504035507 | 12 | 236 | 6.4 | 14.5 | 0.00 | 0.05 | 0.05 | 54 | 1007.6 |
| 20260504035006 | 12 | 313 | 6.4 | 14.5 | 0.00 | 0.05 | 0.05 | 53 | 1007.5 |
| 20260504034506 | 13 | 241 | 4.8 | 14.5 | 0.00 | 0.05 | 0.05 | 53 | 1007.5 |
| 20260504034006 | 13 | 293 | 6.4 | 14.5 | 0.00 | 0.05 | 0.05 | 53 | 1007.5 |
| 20260504033506 | 13 | 280 | 6.4 | 17.7 | 0.00 | 0.05 | 0.05 | 53 | 1007.5 |
| 20260504033006 | 13 | 230 | 6.4 | 17.7 | 0.00 | 0.05 | 0.05 | 53 | 1007.5 |
| 20260504032506 | 13 | 283 | 8.0 | 20.9 | 0.00 | 0.05 | 0.05 | 52 | 1007.5 |
| 20260504032230 | 13 | 254 | 8.0 | 20.9 | 0.00 | 0.05 | 0.05 | 52 | 1007.5 |
| 20260504031503 | 13 | 311 | 9.7 | 20.9 | 0.00 | 0.05 | 0.05 | 52 | 1007.6 |
| 20260504031226 | 13 | 286 | 9.7 | 20.9 | 0.00 | 0.05 | 0.05 | 52 | 1007.5 |
| 20260504030500 | 13 | 348 | 8.0 | 17.7 | 0.00 | 0.05 | 0.05 | 52 | 1007.6 |
| 20260504030003 | 13 | 297 | 8.0 | 16.1 | 0.00 | 0.05 | 0.05 | 53 | 1007.7 |
| 20260504025501 | 13 | 257 | 9.7 | 17.7 | 0.00 | 0.05 | 0.05 | 52 | 1007.7 |
| 20260504025001 | 13 | 335 | 9.7 | 20.9 | 0.00 | 0.05 | 0.05 | 52 | 1007.8 |
| 20260504024502 | 12 | 257 | 9.7 | 20.9 | 0.00 | 0.05 | 0.05 | 53 | 1007.7 |
| 20260504024002 | 12 | 290 | 6.4 | 17.7 | 0.00 | 0.05 | 0.05 | 52 | 1007.9 |
| 20260504023503 | 12 | 213 | 4.8 | 14.5 | 0.00 | 0.05 | 0.05 | 53 | 1008.0 |
| 20260504023001 | 12 | 300 | 4.8 | 12.9 | 0.00 | 0.05 | 0.05 | 54 | 1008.1 |
| 20260504022502 | 12 | 263 | 4.8 | 12.9 | 0.00 | 0.05 | 0.05 | 54 | 1008.1 |
| 20260504022002 | 12 | 283 | 4.8 | 9.7 | 0.00 | 0.05 | 0.05 | 55 | 1008.1 |
| 20260504021501 | 12 | 272 | 4.8 | 12.9 | 0.00 | 0.05 | 0.05 | 54 | 1008.1 |
| 20260504020958 | 12 | 278 | 4.8 | 12.9 | 0.00 | 0.05 | 0.05 | 55 | 1008.0 |
| 20260504020723 | 12 | 231 | 4.8 | 11.3 | 0.00 | 0.05 | 0.05 | 55 | 1008.0 |
| 20260504015959 | 12 | 306 | 4.8 | 14.5 | 0.00 | 0.05 | 0.05 | 56 | 1007.9 |
| 20260504015458 | 12 | 239 | 6.4 | 14.5 | 0.00 | 0.05 | 0.05 | 55 | 1008.0 |
| 20260504014958 | 12 | 281 | 8.0 | 17.7 | 0.00 | 0.05 | 0.05 | 56 | 1008.1 |
| 20260504014459 | 12 | 295 | 8.0 | 17.7 | 0.00 | 0.05 | 0.05 | 55 | 1008.1 |
| 20260504014000 | 12 | 338 | 8.0 | 14.5 | 0.00 | 0.05 | 0.05 | 57 | 1008.1 |
| 20260504013500 | 12 | 299 | 8.0 | 14.5 | 0.00 | 0.05 | 0.05 | 57 | 1008.3 |
| 20260504013224 | 12 | 294 | 8.0 | 14.5 | 0.00 | 0.05 | 0.05 | 57 | 1008.5 |
| 20260504012459 | 12 | 279 | 8.0 | 14.5 | 0.00 | 0.05 | 0.05 | 58 | 1008.5 |
| 20260504012001 | 12 | 341 | 6.4 | 16.1 | 0.00 | 0.05 | 0.05 | 58 | 1008.5 |
| 20260504011457 | 12 | 303 | 8.0 | 16.1 | 0.00 | 0.05 | 0.05 | 58 | 1008.3 |
| 20260504010958 | 12 | 7 | 6.4 | 16.1 | 0.00 | 0.05 | 0.05 | 59 | 1008.4 |
| 20260504010456 | 12 | 313 | 8.0 | 17.7 | 0.00 | 0.05 | 0.05 | 60 | 1008.5 |
| 20260504005956 | 12 | 314 | 11.3 | 29.0 | 0.00 | 0.05 | 0.05 | 59 | 1008.5 |
| 20260504005456 | 12 | 339 | 12.9 | 29.0 | 0.00 | 0.05 | 0.05 | 58 | 1008.7 |
| 20260504004954 | 12 | 301 | 11.3 | 24.1 | 0.00 | 0.05 | 0.05 | 58 | 1008.7 |
| 20260504004455 | 12 | 316 | 11.3 | 24.1 | 0.00 | 0.05 | 0.05 | 58 | 1008.6 |
| 20260504003954 | 12 | 317 | 11.3 | 20.9 | 0.00 | 0.05 | 0.05 | 56 | 1008.5 |
| 20260504003454 | 12 | 340 | 9.7 | 19.3 | 0.05 | 0.05 | 0.05 | 54 | 1008.4 |
| 20260504002953 | 12 | 296 | 8.0 | 19.3 | 0.05 | 0.05 | 0.05 | 54 | 1008.3 |
| 20260504002453 | 12 | 351 | 9.7 | 20.9 | 0.05 | 0.05 | 0.05 | 53 | 1008.3 |
| 20260504001952 | 12 | 298 | 12.9 | 22.5 | 0.05 | 0.05 | 0.05 | 52 | 1008.0 |
| 20260504001452 | 12 | 348 | 12.9 | 27.4 | 0.05 | 0.05 | 0.05 | 52 | 1008.0 |
| 20260504001205 | 12 | 287 | 14.5 | 27.4 | 0.05 | 0.05 | 0.05 | 52 | 1008.0 |
| 20260504000446 | 12 | 299 | 16.1 | 30.6 | 0.05 | 0.05 | 0.05 | 52 | 1008.2 |
| 20260503235946 | 13 | 309 | 17.7 | 37.0 | 0.05 | 0.05 | 0.05 | 51 | 1008.1 |
| 20260503235447 | 13 | 296 | 17.7 | 37.0 | 0.05 | 0.05 | 0.05 | 50 | 1008.3 |
| 20260503234948 | 13 | 316 | 16.1 | 37.0 | 0.05 | 0.05 | 0.05 | 49 | 1007.9 |
| 20260503234707 | 13 | 292 | 16.1 | 37.0 | 0.05 | 0.05 | 0.05 | 49 | 1007.8 |
| 20260503233948 | 13 | 300 | 16.1 | 29.0 | 0.05 | 0.05 | 0.05 | 49 | 1007.8 |
| 20260503233447 | 13 | 299 | 16.1 | 32.2 | 0.03 | 0.03 | 0.03 | 48 | 1007.9 |
| 20260503233207 | 13 | 289 | 14.5 | 32.2 | 0.03 | 0.03 | 0.03 | 47 | 1007.8 |
| 20260503232913 | 13 | 301 | 14.5 | 29.0 | 0.00 | 0.00 | 0.00 | 45 | 1007.5 |
| 20260503232536 | 13 | 287 | 14.5 | 29.0 | 0.03 | 0.03 | 0.03 | 46 | 1007.5 |
| 20260503231440 | 13 | 288 | 14.5 | 32.2 | 0.00 | 0.00 | 0.00 | 44 | 1007.5 |
| 20260503230937 | 13 | 349 | 12.9 | 32.2 | 0.00 | 0.00 | 0.00 | 43 | 1007.6 |
| 20260503230439 | 13 | 354 | 9.7 | 19.3 | 0.00 | 0.00 | 0.00 | 44 | 1007.5 |
| 20260503225937 | 13 | 320 | 8.0 | 17.7 | 0.00 | 0.00 | 0.00 | 44 | 1007.4 |
| 20260503225439 | 13 | 269 | 6.4 | 14.5 | 0.00 | 0.00 | 0.00 | 45 | 1007.4 |
| 20260503224938 | 13 | 252 | 8.0 | 24.1 | 0.00 | 0.00 | 0.00 | 45 | 1007.4 |
| 20260503224438 | 13 | 271 | 8.0 | 24.1 | 0.00 | 0.00 | 0.00 | 44 | 1007.5 |
| 20260503223936 | 13 | 348 | 9.7 | 20.9 | 0.00 | 0.00 | 0.00 | 44 | 1007.5 |
| 20260503223436 | 13 | 314 | 9.7 | 24.1 | 0.00 | 0.00 | 0.00 | 44 | 1007.6 |
| 20260503222937 | 13 | 299 | 9.7 | 24.1 | 0.00 | 0.00 | 0.00 | 43 | 1007.6 |
| 20260503222438 | 13 | 22 | 9.7 | 19.3 | 0.00 | 0.00 | 0.00 | 42 | 1007.7 |
| 20260503221937 | 13 | 334 | 9.7 | 20.9 | 0.00 | 0.00 | 0.00 | 43 | 1007.7 |
| 20260503221436 | 13 | 340 | 11.3 | 20.9 | 0.00 | 0.00 | 0.00 | 42 | 1007.8 |
| 20260503220935 | 14 | 353 | 9.7 | 22.5 | 0.00 | 0.00 | 0.00 | 42 | 1007.8 |
| 20260503220437 | 14 | 275 | 12.9 | 22.5 | 0.00 | 0.00 | 0.00 | 42 | 1007.8 |
| 20260503215936 | 14 | 358 | 11.3 | 22.5 | 0.00 | 0.00 | 0.00 | 42 | 1007.8 |
| 20260503215436 | 14 | 320 | 8.0 | 19.3 | 0.00 | 0.00 | 0.00 | 43 | 1007.8 |
| 20260503215155 | 14 | 323 | 8.0 | 19.3 | 0.00 | 0.00 | 0.00 | 42 | 1007.5 |
| 20260503214437 | 14 | 315 | 8.0 | 19.3 | 0.00 | 0.00 | 0.00 | 42 | 1007.6 |
| 20260503213938 | 14 | 312 | 8.0 | 19.3 | 0.00 | 0.00 | 0.00 | 42 | 1007.6 |
| 20260503213437 | 14 | 231 | 9.7 | 22.5 | 0.00 | 0.00 | 0.00 | 43 | 1007.5 |
| 20260503212937 | 14 | 296 | 6.4 | 22.5 | 0.00 | 0.00 | 0.00 | 41 | 1007.4 |
| 20260503212437 | 14 | 5 | 4.8 | 17.7 | 0.00 | 0.00 | 0.00 | 41 | 1007.3 |
| 20260503211937 | 14 | 242 | 8.0 | 19.3 | 0.00 | 0.00 | 0.00 | 42 | 1007.5 |
| 20260503211434 | 13 | 31 | 8.0 | 19.3 | 0.00 | 0.00 | 0.00 | 41 | 1007.4 |
| 20260503210934 | 13 | 235 | 6.4 | 20.9 | 0.00 | 0.00 | 0.00 | 41 | 1007.5 |
| 20260503210434 | 13 | 249 | 9.7 | 20.9 | 0.00 | 0.00 | 0.00 | 41 | 1007.6 |
| 20260503205934 | 13 | 340 | 9.7 | 20.9 | 0.00 | 0.00 | 0.00 | 41 | 1007.6 |
| 20260503205435 | 13 | 300 | 9.7 | 20.9 | 0.00 | 0.00 | 0.00 | 41 | 1007.8 |
| 20260503205201 | 13 | 350 | 9.7 | 20.9 | 0.00 | 0.00 | 0.00 | 42 | 1007.8 |
| 20260503204434 | 13 | 312 | 8.0 | 20.9 | 0.00 | 0.00 | 0.00 | 42 | 1007.8 |
| 20260503204426 | 13 | 280 | 9.7 | 20.9 | 0.00 | 0.00 | 0.00 | 42 | 1007.7 |
| 20260503203700 | 13 | 289 | 11.3 | 20.9 | 0.00 | 0.00 | 0.00 | 43 | 1007.9 |
| 20260503203158 | 13 | 314 | 12.9 | 20.9 | 0.00 | 0.00 | 0.00 | 43 | 1007.9 |
| 20260503202432 | 13 | 277 | 9.7 | 20.9 | 0.00 | 0.00 | 0.00 | 42 | 1008.1 |
| 20260503202201 | 12 | 286 | 9.7 | 17.7 | 0.00 | 0.00 | 0.00 | 43 | 1008.1 |
| 20260503201430 | 12 | 244 | 12.9 | 24.1 | 0.00 | 0.00 | 0.00 | 44 | 1008.2 |
| 20260503200930 | 12 | 305 | 14.5 | 24.1 | 0.00 | 0.00 | 0.00 | 43 | 1008.3 |
| 20260503200428 | 12 | 290 | 14.5 | 22.5 | 0.00 | 0.00 | 0.00 | 42 | 1008.3 |
| 20260503195929 | 12 | 280 | 14.5 | 25.7 | 0.00 | 0.00 | 0.00 | 42 | 1008.4 |
| 20260503195430 | 13 | 313 | 12.9 | 25.7 | 0.00 | 0.00 | 0.00 | 42 | 1008.4 |
| 20260503194931 | 13 | 287 | 12.9 | 25.7 | 0.00 | 0.00 | 0.00 | 42 | 1008.5 |
| 20260503194430 | 12 | 282 | 12.9 | 24.1 | 0.00 | 0.00 | 0.00 | 42 | 1008.5 |
| 20260503193930 | 12 | 272 | 11.3 | 24.1 | 0.00 | 0.00 | 0.00 | 42 | 1008.7 |
| 20260503193429 | 13 | 255 | 9.7 | 19.3 | 0.00 | 0.00 | 0.00 | 42 | 1008.9 |
| 20260503193148 | 12 | 347 | 11.3 | 20.9 | 0.00 | 0.00 | 0.00 | 43 | 1008.9 |
| 20260503192429 | 12 | 297 | 12.9 | 20.9 | 0.00 | 0.00 | 0.00 | 43 | 1009.1 |
| 20260503191927 | 12 | 299 | 9.7 | 20.9 | 0.00 | 0.00 | 0.00 | 43 | 1009.0 |
| 20260503191649 | 11 | 319 | 11.3 | 22.5 | 0.00 | 0.00 | 0.00 | 43 | 1009.1 |
| 20260503191150 | 11 | 300 | 12.9 | 27.4 | 0.00 | 0.00 | 0.00 | 42 | 1009.3 |
| 20260503190647 | 11 | 314 | 14.5 | 27.4 | 0.00 | 0.00 | 0.00 | 45 | 1009.3 |
| 20260503185928 | 11 | 312 | 14.5 | 29.0 | 0.00 | 0.00 | 0.00 | 46 | 1009.4 |
| 20260503185429 | 12 | 260 | 11.3 | 29.0 | 0.00 | 0.00 | 0.00 | 45 | 1009.5 |
| 20260503184927 | 12 | 13 | 9.7 | 20.9 | 0.00 | 0.00 | 0.00 | 46 | 1009.5 |
| 20260503184647 | 12 | 332 | 9.7 | 20.9 | 0.00 | 0.00 | 0.00 | 47 | 1009.6 |
| 20260503184153 | 11 | 264 | 9.7 | 20.9 | 0.00 | 0.00 | 0.00 | 48 | 1009.6 |
| 20260503183429 | 11 | 280 | 9.7 | 19.3 | 0.00 | 0.00 | 0.00 | 48 | 1009.7 |
| 20260503182924 | 11 | 325 | 11.3 | 20.9 | 0.00 | 0.00 | 0.00 | 47 | 1009.6 |
| 20260503182424 | 12 | 356 | 12.9 | 24.1 | 0.00 | 0.00 | 0.00 | 48 | 1009.7 |
| 20260503182151 | 12 | 302 | 12.9 | 25.7 | 0.00 | 0.00 | 0.00 | 47 | 1009.6 |
| 20260503181643 | 12 | 250 | 11.3 | 25.7 | 0.00 | 0.00 | 0.00 | 48 | 1009.6 |
| 20260503180923 | 11 | 276 | 9.7 | 20.9 | 0.00 | 0.00 | 0.00 | 48 | 1009.6 |
| 20260503180423 | 11 | 20 | 9.7 | 19.3 | 0.00 | 0.00 | 0.00 | 48 | 1009.7 |
| 20260503180149 | 11 | 352 | 9.7 | 22.5 | 0.00 | 0.00 | 0.00 | 48 | 1009.8 |
| 20260503175419 | 11 | 328 | 12.9 | 22.5 | 0.00 | 0.00 | 0.00 | 47 | 1009.8 |
| 20260503174919 | 11 | 274 | 12.9 | 24.1 | 0.00 | 0.00 | 0.00 | 48 | 1009.8 |
| 20260503174419 | 11 | 244 | 11.3 | 24.1 | 0.00 | 0.00 | 0.00 | 48 | 1010.0 |
| 20260503173919 | 11 | 265 | 11.3 | 24.1 | 0.00 | 0.00 | 0.00 | 49 | 1009.9 |
| 20260503173419 | 11 | 303 | 11.3 | 24.1 | 0.00 | 0.00 | 0.00 | 48 | 1010.0 |
| 20260503172917 | 11 | 343 | 9.7 | 24.1 | 0.00 | 0.00 | 0.00 | 48 | 1010.1 |
| 20260503172418 | 11 | 324 | 9.7 | 20.9 | 0.00 | 0.00 | 0.00 | 47 | 1010.1 |
| 20260503171918 | 11 | 284 | 8.0 | 19.3 | 0.00 | 0.00 | 0.00 | 47 | 1010.0 |
| 20260503171858 | 11 | 282 | 9.7 | 19.3 | 0.00 | 0.00 | 0.00 | 46 | 1010.0 |
| 20260503170918 | 11 | 262 | 11.3 | 19.3 | 0.00 | 0.00 | 0.00 | 47 | 1010.1 |
| 20260503170418 | 11 | 310 | 11.3 | 20.9 | 0.00 | 0.00 | 0.00 | 47 | 1010.1 |
| 20260503170146 | 11 | 294 | 9.7 | 20.9 | 0.00 | 0.00 | 0.00 | 47 | 1010.2 |
| 20260503150407 | 8 | 200 | 8.0 | 16.1 | 0.00 | 0.00 | 0.00 | 50 | 1011.8 |
| 20260503131400 | 6 | 285 | 6.4 | 14.5 | 0.00 | 0.00 | 0.00 | 53 | 1012.5 |
| 20260503130900 | 6 | 238 | 4.8 | 11.3 | 0.00 | 0.00 | 0.00 | 53 | 1012.6 |
| 20260503130400 | 6 | 350 | 3.2 | 11.3 | 0.00 | 0.00 | 0.00 | 53 | 1012.7 |
| 20260503130120 | 6 | 327 | 4.8 | 12.9 | 0.00 | 0.00 | 0.00 | 55 | 1012.7 |
| 20260503110356 | 2 | 284 | 4.8 | 12.9 | 0.00 | 0.00 | 0.00 | 84 | 1012.4 |
| 20260503090350 | 1 | 0 | 0.0 | 3.2 | 0.00 | 0.00 | 0.00 | 87 | 1012.1 |
| 20260503081612 | 2 | 316 | 1.6 | 4.8 | 0.00 | 0.00 | 0.00 | 85 | 1012.3 |
| 20260503080848 | 3 | 317 | 1.6 | 8.0 | 0.00 | 0.00 | 0.00 | 84 | 1012.3 |
| 20260503080348 | 3 | 310 | 3.2 | 8.0 | 0.00 | 0.00 | 0.00 | 83 | 1012.3 |
| 20260503072844 | 3 | 305 | 6.4 | 12.9 | 0.00 | 0.00 | 0.00 | 81 | 1012.2 |
| 20260503072603 | 3 | 299 | 6.4 | 11.3 | 0.00 | 0.00 | 0.00 | 80 | 1012.2 |
| 20260503071845 | 4 | 299 | 6.4 | 12.9 | 0.00 | 0.00 | 0.00 | 80 | 1012.2 |
| 20260503071608 | 4 | 306 | 6.4 | 12.9 | 0.00 | 0.00 | 0.00 | 80 | 1012.2 |
| 20260503070845 | 4 | 293 | 4.8 | 11.3 | 0.00 | 0.00 | 0.00 | 80 | 1012.2 |
| 20260503070346 | 4 | 351 | 4.8 | 9.7 | 0.00 | 0.00 | 0.00 | 79 | 1012.2 |